Fort Wayne, Indiana
Current Conditions -  °F | °C
As of 2:54 AM on Thursday 29 Jan 2015 (Local Time) from KFWA Reporting Station
Overcast Overcast  
Wind Chill: 24°   Ceiling: 14000
Heat Index: 32°   Visibility: 10mi
Dew Point: 21°   Wind: 10mph
Humidity: 64%   Direction: 140°SE
Pressure: 29.93"   Gusts: NA
Location:  41.08°N, 85.1°W
Report Text: KFWA 290754Z 14009KT 10SM BKN140 OVC200 00/M06 A2993 RMK AO2 SLP144 T00001061
Loading
Personal Weather Stations






























Interactive Weather Map New forecast layout! Learn more

10-Day Weather Forecast

Advertisements
Track Severe Weather on mobile